Time;durP1;ratioP1;P1;durP2;ratioP2;P2;SDS_P1;SDS_P2;PMS_P1;PMS_P2;Temp;Humidity;BMP_temperature;BMP_pressure;BME280_temperature;BME280_humidity;BME280_pressure;Samples;Min_cycle;Max_cycle;Signal;HPM_P1;HPM_P2
2023/09/01 01:33:07;;;;;;;8.40;3.30;;;;;;;10.97;81.63;97243.83;101929;1290;635878;-82
2023/09/01 01:36:40;;;;;;;7.30;3.80;;;;;;;10.92;81.68;97249.41;103743;1278;96038;-83
2023/09/01 01:39:48;;;;;;;9.90;3.40;;;;;;;10.90;81.86;97245.98;103195;1281;96048;-85
2023/09/01 01:48:34;;;;;;;7.20;3.50;;;;;;;10.61;81.79;97246.45;101563;1299;641167;-81
2023/09/01 01:51:43;;;;;;;4.80;3.40;;;;;;;10.60;82.04;97243.38;103861;1275;96406;-80
2023/09/01 02:14:31;;;;;;;9.20;3.90;;;;;;;10.97;82.40;97237.47;101521;1301;638912;-81
2023/09/01 02:17:39;;;;;;;5.00;3.70;;;;;;;10.92;82.44;97237.54;103648;1279;95986;-82
2023/09/01 02:20:47;;;;;;;5.10;3.60;;;;;;;10.89;82.53;97234.35;103158;1287;96057;-81
2023/09/01 02:29:05;;;;;;;4.70;3.50;;;;;;;10.82;82.11;97237.84;101111;1298;640536;-82
2023/09/01 02:32:13;;;;;;;6.40;3.50;;;;;;;10.79;82.20;97239.19;103254;1291;96062;-83
2023/09/01 02:35:21;;;;;;;6.70;3.10;;;;;;;10.74;82.15;97245.29;102955;1284;96717;-83
2023/09/01 02:54:31;;;;;;;9.40;4.10;;;;;;;10.43;82.54;97245.36;100843;1303;640214;-82
2023/09/01 02:57:39;;;;;;;7.60;4.60;;;;;;;10.42;82.83;97246.39;103278;1281;96850;-81
2023/09/01 03:00:52;;;;;;;7.30;4.20;;;;;;;10.38;82.82;97244.52;102030;1295;96005;-80
2023/09/01 03:17:18;;;;;;;7.80;4.20;;;;;;;10.34;83.19;97238.17;101441;1301;642337;-82
2023/09/01 03:20:26;;;;;;;8.50;3.90;;;;;;;10.35;83.37;97241.46;102878;1289;96112;-81
2023/09/01 03:23:35;;;;;;;8.30;4.20;;;;;;;10.34;83.32;97241.21;102018;1293;96012;-82
2023/09/01 03:39:37;;;;;;;7.90;4.30;;;;;;;10.40;83.24;97245.80;101047;1314;641998;-83
2023/09/01 03:42:45;;;;;;;4.80;4.20;;;;;;;10.32;83.51;97248.02;103391;1282;97138;-81
2023/09/01 03:45:36;;;;;;;5.60;3.60;;;;;;;10.35;83.83;97248.89;103147;1286;97373;-83
2023/09/01 04:09:32;;;;;;;6.50;4.60;;;;;;;10.92;84.16;97256.55;104831;1266;643226;-76
2023/09/01 04:12:39;;;;;;;8.60;4.40;;;;;;;11.08;83.90;97262.02;102147;1267;5352263;-78
2023/09/01 04:15:46;;;;;;;6.20;4.20;;;;;;;10.93;83.82;97263.16;105055;1276;99130;-79
2023/09/01 04:19:03;;;;;;;6.70;4.60;;;;;;;10.89;84.02;97263.22;104060;1276;101478;-79
2023/09/01 04:46:03;;;;;;;13.00;6.50;;;;;;;11.01;84.30;97258.95;101783;1296;643094;-86
2023/09/01 04:49:10;;;;;;;14.60;7.60;;;;;;;11.09;84.61;97258.08;99433;1284;5334642;-84
2023/09/01 04:52:16;;;;;;;10.70;6.00;;;;;;;11.08;84.77;97262.38;102365;1296;98354;-82
2023/09/01 05:05:27;;;;;;;13.40;7.30;;;;;;;11.18;84.78;97254.05;101741;1302;635753;-81
2023/09/01 05:08:28;;;;;;;11.50;6.90;;;;;;;11.22;85.14;97261.95;103746;1278;95900;-81
2023/09/01 05:11:36;;;;;;;10.40;7.30;;;;;;;11.22;85.25;97262.45;103575;1279;95968;-81
2023/09/01 05:14:48;;;;;;;9.80;7.10;;;;;;;11.27;85.22;97260.70;103124;1284;98715;-81
2023/09/01 05:31:14;;;;;;;8.60;5.90;;;;;;;11.52;85.50;97273.98;101568;1301;644787;-82
2023/09/01 05:34:21;;;;;;;13.20;6.20;;;;;;;11.56;85.56;97272.54;103893;1275;97502;-83
2023/09/01 05:37:18;;;;;;;14.90;6.20;;;;;;;11.61;85.70;97270.27;103247;1283;96005;-81
2023/09/01 05:40:24;;;;;;;9.90;6.90;;;;;;;11.66;85.97;97269.73;102503;1289;98138;-81
2023/09/01 05:43:31;;;;;;;12.60;6.50;;;;;;;11.71;86.04;97275.89;98395;1308;5399125;-82
2023/09/01 05:57:04;;;;;;;8.80;4.70;;;;;;;11.99;86.56;97279.23;101125;1298;638696;-86
2023/09/01 06:00:13;;;;;;;6.50;4.40;;;;;;;12.05;86.60;97283.66;103338;1278;95947;-84
2023/09/01 06:27:06;;;;;;;14.50;5.50;;;;;;;13.01;86.93;97293.96;102439;1284;642700;-83
2023/09/01 06:30:12;;;;;;;5.90;5.00;;;;;;;13.43;87.31;97288.56;99592;1278;5344354;-83
2023/09/01 06:33:19;;;;;;;8.30;4.90;;;;;;;13.52;87.61;97285.59;103450;1283;98529;-81
2023/09/01 06:36:19;;;;;;;8.80;4.40;;;;;;;13.62;87.61;97294.58;102670;1289;100232;-81
2023/09/01 07:02:42;;;;;;;7.60;3.30;;;;;;;14.65;82.13;97304.05;102544;1288;643721;-83
2023/09/01 07:05:50;;;;;;;6.30;3.10;;;;;;;15.04;80.24;97305.45;100031;1273;5343892;-84
2023/09/01 07:08:58;;;;;;;4.30;3.10;;;;;;;15.12;80.30;97309.09;103285;1289;96457;-83
2023/09/01 07:12:07;;;;;;;4.00;3.10;;;;;;;15.19;80.15;97303.35;102659;1292;97465;-83
2023/09/01 07:36:58;;;;;;;5.40;2.40;;;;;;;16.76;73.04;97296.81;103077;1276;99474;-84
2023/09/01 07:39:59;;;;;;;4.80;2.50;;;;;;;17.08;73.18;97298.73;103633;1290;100172;-85
2023/09/01 07:46:33;;;;;;;5.70;2.40;;;;;;;17.99;70.24;97295.88;102329;1283;94511;-81
2023/09/01 08:58:42;;;;;;;4.40;2.30;;;;;;;22.06;51.05;97309.44;102295;1291;642523;-84
2023/09/01 09:01:49;;;;;;;2.90;2.10;;;;;;;21.91;50.30;97304.13;99761;1280;5347222;-90
2023/09/01 09:04:57;;;;;;;3.20;2.00;;;;;;;21.67;50.64;97306.94;103337;1292;100028;-85
2023/09/01 09:08:04;;;;;;;5.90;2.50;;;;;;;21.43;51.10;97315.71;103113;1294;99518;-85
2023/09/01 09:35:29;;;;;;;3.70;2.30;;;;;;;22.76;48.34;97313.56;104723;1265;641433;-81
2023/09/01 09:38:16;;;;;;;;;;;;;;;23.41;46.71;97317.98;102016;1267;5495924;-81
2023/09/01 09:41:23;;;;;;;3.20;2.10;;;;;;;23.34;46.93;97316.79;105579;1263;96914;-81
2023/09/01 09:44:31;;;;;;;3.70;2.30;;;;;;;23.32;47.87;97318.41;105135;1266;99556;-82
2023/09/01 09:47:27;;;;;;;4.90;2.50;;;;;;;23.28;47.51;97321.12;105313;1261;100266;-84
2023/09/01 10:20:07;;;;;;;5.90;3.00;;;;;;;22.21;46.86;97318.33;105861;1262;94306;-91
2023/09/01 10:23:26;;;;;;;4.70;3.00;;;;;;;22.07;46.80;97320.03;106130;1254;98435;-85
2023/09/01 10:26:44;;;;;;;4.20;2.60;;;;;;;21.92;46.87;97317.52;104888;1270;100235;-87
2023/09/01 10:30:09;;;;;;;3.70;2.50;;;;;;;21.78;47.68;97316.80;104280;1276;108198;-85
2023/09/01 10:43:22;;;;;;;4.40;2.70;;;;;;;22.09;49.07;97306.23;101672;1297;636503;-85
2023/09/01 10:46:33;;;;;;;6.60;2.80;;;;;;;22.33;48.72;97304.46;103191;1283;97125;-80
2023/09/01 10:49:41;;;;;;;4.50;2.50;;;;;;;22.48;48.84;97305.59;104178;1271;95919;-85
2023/09/01 11:09:18;;;;;;;3.10;2.10;;;;;;;23.36;47.07;97292.36;101688;1303;638974;-83
2023/09/01 11:12:33;;;;;;;5.00;2.20;;;;;;;23.30;46.69;97295.81;103503;1295;96008;-86
2023/09/01 11:15:37;;;;;;;4.20;2.60;;;;;;;23.26;46.96;97294.55;102370;1295;96009;-85
2023/09/01 11:42:10;;;;;;;4.00;2.40;;;;;;;24.18;44.02;97270.91;102075;1293;643188;-85
2023/09/01 11:45:51;;;;;;;4.60;2.10;;;;;;;24.36;42.01;97272.05;98826;1284;5364509;-88
2023/09/01 12:02:19;;;;;;;7.20;2.60;;;;;;;24.50;43.28;97265.58;101619;1296;638642;-88
2023/09/01 12:05:27;;;;;;;4.00;3.00;;;;;;;24.56;43.00;97264.96;103088;1287;96817;-89
2023/09/01 12:08:37;;;;;;;3.50;2.40;;;;;;;24.58;42.62;97268.79;102367;1295;96116;-87
2023/09/01 12:24:48;;;;;;;5.00;2.50;;;;;;;24.33;42.12;97266.31;101533;1301;639239;-84
2023/09/01 12:27:56;;;;;;;5.30;2.90;;;;;;;24.30;41.75;97259.54;103490;1280;97241;-84
2023/09/01 12:44:04;;;;;;;5.00;2.20;;;;;;;24.20;42.15;97255.76;102477;1289;640046;-85
2023/09/01 12:47:12;;;;;;;4.60;2.60;;;;;;;24.11;42.27;97260.01;104058;1279;95939;-82
2023/09/01 12:50:20;;;;;;;4.00;2.40;;;;;;;24.00;42.54;97262.94;103372;1280;95898;-88
2023/09/01 12:53:28;;;;;;;6.40;2.40;;;;;;;23.88;42.77;97259.12;103505;1280;98789;-86
2023/09/01 13:06:10;;;;;;;3.40;2.30;;;;;;;23.49;43.71;97254.02;101566;1307;635849;-79
2023/09/01 13:08:51;;;;;;;4.00;2.60;;;;;;;23.47;43.69;97253.59;103931;1276;96044;-80
2023/09/01 13:12:00;;;;;;;4.50;2.50;;;;;;;23.49;43.47;97251.60;104543;1267;96009;-79
2023/09/01 13:14:58;;;;;;;6.40;3.10;;;;;;;23.46;43.29;97255.27;104019;1274;98367;-79
2023/09/01 13:18:08;;;;;;;4.40;2.30;;;;;;;23.38;43.14;97256.64;104055;1278;100391;-93
2023/09/01 13:21:16;;;;;;;4.40;2.60;;;;;;;23.26;43.36;97253.84;99682;1272;5584965;-86
2023/09/01 13:24:25;;;;;;;8.40;2.90;;;;;;;23.24;44.07;97252.06;103236;1280;96815;-79
2023/09/01 13:53:57;;;;;;;4.40;2.80;;;;;;;23.77;42.86;97253.34;102101;1294;640561;-86
2023/09/01 13:57:10;;;;;;;5.00;2.60;;;;;;;23.71;42.86;97258.34;98989;1287;5333451;-83
2023/09/01 14:23:37;;;;;;;3.20;2.40;;;;;;;23.28;43.23;97262.40;101980;1299;642352;-78
2023/09/01 14:26:25;;;;;;;3.80;2.60;;;;;;;23.20;43.39;97271.55;99462;1282;5343207;-79
2023/09/01 14:29:35;;;;;;;3.80;2.50;;;;;;;23.05;43.72;97270.36;103231;1280;96062;-79
2023/09/01 14:32:41;;;;;;;4.90;2.30;;;;;;;22.89;44.19;97269.02;102720;1283;99770;-80
2023/09/01 14:35:49;;;;;;;5.80;3.20;;;;;;;22.75;44.53;97266.58;102194;1292;101385;-83
2023/09/01 14:51:40;;;;;;;5.90;2.60;;;;;;;22.40;45.98;97271.56;101782;1295;636211;-82
2023/09/01 14:54:48;;;;;;;4.00;2.30;;;;;;;22.33;46.27;97274.84;103849;1276;96827;-83
2023/09/01 14:57:57;;;;;;;5.50;2.40;;;;;;;22.30;46.71;97272.55;103309;1277;95972;-80
2023/09/01 15:33:17;;;;;;;4.10;2.50;;;;;;;22.23;46.86;97274.65;105448;1267;94734;-80
2023/09/01 15:36:14;;;;;;;8.50;2.50;;;;;;;22.10;46.95;97273.55;106584;1262;96696;-80
2023/09/01 15:39:23;;;;;;;4.40;2.30;;;;;;;21.97;47.31;97270.63;105782;1266;98269;-83
2023/09/01 15:42:22;;;;;;;4.10;2.90;;;;;;;21.89;47.59;97276.33;105067;1266;100602;-82
2023/09/01 15:45:28;;;;;;;6.60;2.70;;;;;;;21.81;47.78;97277.89;104446;1275;99313;-81
2023/09/01 15:48:35;;;;;;;3.10;2.30;;;;;;;21.68;47.67;97279.35;104437;1266;95962;-83
2023/09/01 15:51:41;;;;;;;5.00;2.50;;;;;;;21.56;47.92;97279.21;104772;1268;95991;-82
2023/09/01 15:54:48;;;;;;;5.10;2.90;;;;;;;21.43;48.05;97284.24;104492;1273;99416;-80
2023/09/01 15:57:37;;;;;;;5.80;3.00;;;;;;;21.30;48.68;97280.19;104469;1273;100278;-82
2023/09/01 16:23:35;;;;;;;4.70;3.10;;;;;;;21.27;49.42;97276.23;104721;1264;642538;-82
2023/09/01 16:26:42;;;;;;;4.00;2.30;;;;;;;21.24;49.38;97282.59;102574;1254;5421132;-83
2023/09/01 16:29:49;;;;;;;2.60;2.20;;;;;;;21.10;49.56;97287.56;106478;1254;95991;-83
2023/09/01 16:32:56;;;;;;;3.50;2.40;;;;;;;20.98;49.90;97287.63;105794;1255;98291;-83
2023/09/01 16:36:12;;;;;;;3.00;2.20;;;;;;;20.90;50.47;97283.48;104628;1273;101420;-81
2023/09/01 16:51:54;;;;;;;5.30;3.50;;;;;;;20.49;51.99;97283.99;101720;1294;636724;-82
2023/09/01 16:55:03;;;;;;;4.10;2.70;;;;;;;20.40;52.83;97286.04;103745;1276;96041;-81
2023/09/01 16:58:11;;;;;;;7.50;3.10;;;;;;;20.26;53.90;97288.39;102979;1283;96885;-81
2023/09/01 17:01:20;;;;;;;6.60;3.50;;;;;;;20.13;54.75;97290.04;102416;1304;98563;-82
2023/09/01 17:20:27;;;;;;;7.40;4.60;;;;;;;19.47;57.41;97292.11;101006;1298;638732;-84
2023/09/01 17:23:35;;;;;;;6.30;3.90;;;;;;;19.32;58.12;97291.20;103163;1281;95965;-82
2023/09/01 17:26:44;;;;;;;6.60;4.00;;;;;;;19.25;58.62;97290.17;102563;1300;96078;-83
2023/09/01 17:29:53;;;;;;;15.10;5.80;;;;;;;19.22;59.24;97291.87;102421;1293;99666;-90
2023/09/01 17:56:30;;;;;;;6.70;4.90;;;;;;;19.29;62.12;97309.46;105307;1259;642662;-90
2023/09/01 17:59:37;;;;;;;8.80;4.90;;;;;;;19.35;62.91;97313.20;103170;1247;5383786;-84
2023/09/01 18:02:50;;;;;;;8.30;4.20;;;;;;;19.25;62.64;97311.96;106219;1257;98017;-88
2023/09/01 18:05:57;;;;;;;8.80;5.30;;;;;;;19.14;62.74;97315.77;105257;1261;102061;-85
2023/09/01 18:29:24;;;;;;;13.30;7.30;;;;;;;18.96;64.57;97332.04;102051;1291;640347;-84
2023/09/01 18:32:37;;;;;;;14.20;6.70;;;;;;;18.98;65.03;97335.23;98760;1289;5343317;-84
2023/09/01 18:52:11;;;;;;;10.10;6.10;;;;;;;18.29;66.06;97339.92;101468;1302;643897;-84
2023/09/01 18:55:17;;;;;;;10.00;6.60;;;;;;;18.22;66.32;97339.77;103456;1285;97287;-84
2023/09/01 18:58:24;;;;;;;9.30;5.70;;;;;;;18.18;66.59;97338.48;103450;1284;96856;-86
2023/09/01 19:01:38;;;;;;;7.90;5.30;;;;;;;18.14;66.61;97340.84;103062;1286;98122;-84
2023/09/01 19:04:24;;;;;;;;;;;;;;;18.08;66.74;97344.13;98889;1301;5376771;-84
2023/09/01 19:07:33;;;;;;;10.80;6.80;;;;;;;18.02;66.84;97344.89;102260;1296;99009;-85
2023/09/01 19:45:19;;;;;;;11.40;7.90;;;;;;;17.94;68.94;97341.34;105222;1259;101517;-82
2023/09/01 19:48:47;;;;;;;13.00;7.70;;;;;;;17.88;69.18;97343.84;105937;1253;100587;-83
2023/09/01 19:52:29;;;;;;;11.80;7.20;;;;;;;17.85;69.24;97351.64;105215;1258;95808;-84
2023/09/01 20:03:33;;;;;;;;;;;;;;;;;;;;;
2023/09/01 20:22:40;;;;;;;9.50;6.30;;;;;;;17.44;70.79;97355.92;103652;1269;95998;-85
2023/09/01 20:26:33;;;;;;;;;;;;;;;;;;;;;
2023/09/01 20:59:53;;;;;;;5.70;4.30;;;;;;;17.84;71.61;97366.90;102443;1279;650461;-84
2023/09/01 21:03:05;;;;;;;6.40;4.60;;;;;;;17.87;71.36;97369.29;101201;1270;5432082;-85
2023/09/01 21:06:13;;;;;;;5.30;4.20;;;;;;;17.78;71.30;97375.48;104713;1267;96045;-84
2023/09/01 21:09:20;;;;;;;4.80;3.90;;;;;;;17.70;71.35;97373.21;103699;1277;98555;-84
2023/09/01 21:12:27;;;;;;;6.20;4.90;;;;;;;17.61;71.36;97374.36;103407;1283;108780;-85
2023/09/01 21:39:29;;;;;;;7.00;4.10;;;;;;;17.35;72.88;97369.90;101431;1268;5004656;-90
2023/09/01 21:42:36;;;;;;;6.10;4.40;;;;;;;17.25;72.89;97373.13;106995;1247;95861;-85
2023/09/01 21:45:36;;;;;;;11.50;4.70;;;;;;;17.21;73.08;97374.70;105701;1260;98427;-85
2023/09/01 21:48:43;;;;;;;9.10;4.10;;;;;;;17.12;73.01;97375.80;105091;1268;99937;-84
2023/09/01 22:01:38;;;;;;;6.30;3.90;;;;;;;16.72;73.40;97362.55;101245;1305;639471;-85
2023/09/01 22:04:46;;;;;;;6.90;3.80;;;;;;;16.71;73.55;97369.24;102451;1289;96414;-86
2023/09/01 22:08:00;;;;;;;8.00;4.20;;;;;;;16.72;73.87;97369.30;102127;1293;95908;-83
2023/09/01 22:37:22;;;;;;;6.10;3.60;;;;;;;16.84;75.03;97356.81;103236;1282;642136;-83
2023/09/01 22:40:31;;;;;;;7.10;3.80;;;;;;;16.94;75.18;97358.06;101112;1267;5403977;-83
2023/09/01 22:43:40;;;;;;;6.40;3.80;;;;;;;16.83;75.10;97354.97;104695;1270;98657;-84
2023/09/01 23:03:05;;;;;;;6.20;4.30;;;;;;;16.56;76.11;97344.21;102186;1296;640215;-85
2023/09/01 23:06:20;;;;;;;6.30;3.80;;;;;;;16.50;76.26;97340.20;103248;1285;95995;-83
2023/09/01 23:09:30;;;;;;;4.20;3.50;;;;;;;16.50;76.32;97339.00;102036;1299;96891;-85
2023/09/01 23:33:13;;;;;;;6.40;3.80;;;;;;;16.84;76.96;97333.31;104827;1270;644616;-89
2023/09/01 23:36:20;;;;;;;4.80;3.80;;;;;;;17.00;77.02;97340.19;101464;1257;5418290;-84
2023/09/01 23:39:34;;;;;;;5.10;4.10;;;;;;;16.96;76.93;97341.08;105434;1264;99191;-85
2023/09/01 23:42:47;;;;;;;6.00;3.30;;;;;;;16.90;76.94;97341.48;104614;1275;101854;-84
2023/09/01 23:55:52;;;;;;;7.50;4.00;;;;;;;16.74;77.28;97328.30;101543;1300;640090;-84
2023/09/01 23:59:03;;;;;;;8.50;4.10;;;;;;;16.64;77.68;97320.00;103413;1281;96858;-84
